sensor_id;sensor_type;location;lat;lon;timestamp;pressure;altitude;pressure_sealevel;temperature;humidity
66479;BME280;53294;47.912;13.526;2022-12-29T00:00:07;96190.31;;;4.03;53.94
66479;BME280;53294;47.912;13.526;2022-12-29T00:02:34;96198.25;;;3.98;54.04
66479;BME280;53294;47.912;13.526;2022-12-29T00:05:01;96200.66;;;4.00;53.67
66479;BME280;53294;47.912;13.526;2022-12-29T00:07:28;96194.28;;;4.01;54.14
66479;BME280;53294;47.912;13.526;2022-12-29T00:09:54;96197.91;;;3.89;54.65
66479;BME280;53294;47.912;13.526;2022-12-29T00:12:21;96190.22;;;3.93;54.32
66479;BME280;53294;47.912;13.526;2022-12-29T00:14:48;96183.81;;;3.89;54.52
66479;BME280;53294;47.912;13.526;2022-12-29T00:17:33;96193.34;;;3.85;54.79
66479;BME280;53294;47.912;13.526;2022-12-29T00:19:59;96184.69;;;3.67;54.94
66479;BME280;53294;47.912;13.526;2022-12-29T00:22:45;96181.41;;;3.87;54.18
66479;BME280;53294;47.912;13.526;2022-12-29T00:25:30;96185.91;;;3.87;54.42
66479;BME280;53294;47.912;13.526;2022-12-29T00:28:15;96180.16;;;3.68;55.25
66479;BME280;53294;47.912;13.526;2022-12-29T00:31:00;96175.72;;;3.73;55.03
66479;BME280;53294;47.912;13.526;2022-12-29T00:33:45;96171.47;;;3.77;54.78
66479;BME280;53294;47.912;13.526;2022-12-29T00:36:40;96180.59;;;3.87;54.41
66479;BME280;53294;47.912;13.526;2022-12-29T00:39:16;96168.81;;;3.77;54.78
66479;BME280;53294;47.912;13.526;2022-12-29T00:42:04;96175.25;;;3.82;54.51
66479;BME280;53294;47.912;13.526;2022-12-29T00:44:49;96170.91;;;3.70;54.98
66479;BME280;53294;47.912;13.526;2022-12-29T00:47:16;96177.81;;;3.44;56.25
66479;BME280;53294;47.912;13.526;2022-12-29T00:49:43;96173.78;;;3.64;55.07
66479;BME280;53294;47.912;13.526;2022-12-29T00:52:12;96171.63;;;3.61;55.44
66479;BME280;53294;47.912;13.526;2022-12-29T00:54:40;96162.88;;;3.65;55.16
66479;BME280;53294;47.912;13.526;2022-12-29T00:57:09;96169.53;;;3.68;54.86
66479;BME280;53294;47.912;13.526;2022-12-29T00:59:37;96161.66;;;3.51;55.38
66479;BME280;53294;47.912;13.526;2022-12-29T01:02:04;96159.22;;;3.44;55.90
66479;BME280;53294;47.912;13.526;2022-12-29T01:04:31;96158.34;;;3.38;56.43
66479;BME280;53294;47.912;13.526;2022-12-29T01:06:58;96158.00;;;3.30;56.91
66479;BME280;53294;47.912;13.526;2022-12-29T01:09:25;96167.31;;;3.32;56.86
66479;BME280;53294;47.912;13.526;2022-12-29T01:12:10;96159.84;;;3.29;56.82
66479;BME280;53294;47.912;13.526;2022-12-29T01:14:37;96158.84;;;3.35;56.76
66479;BME280;53294;47.912;13.526;2022-12-29T01:17:05;96163.13;;;3.36;56.50
66479;BME280;53294;47.912;13.526;2022-12-29T01:19:32;96161.09;;;3.44;56.36
66479;BME280;53294;47.912;13.526;2022-12-29T01:21:59;96155.53;;;3.45;56.51
66479;BME280;53294;47.912;13.526;2022-12-29T01:24:26;96146.22;;;3.48;56.36
66479;BME280;53294;47.912;13.526;2022-12-29T01:26:53;96150.34;;;3.33;57.22
66479;BME280;53294;47.912;13.526;2022-12-29T01:29:21;96147.81;;;3.44;56.70
66479;BME280;53294;47.912;13.526;2022-12-29T01:31:48;96152.63;;;3.47;56.61
66479;BME280;53294;47.912;13.526;2022-12-29T01:34:16;96155.34;;;3.30;57.21
66479;BME280;53294;47.912;13.526;2022-12-29T01:36:43;96155.56;;;3.50;56.11
66479;BME280;53294;47.912;13.526;2022-12-29T01:39:10;96152.66;;;3.52;56.57
66479;BME280;53294;47.912;13.526;2022-12-29T01:41:37;96137.72;;;3.73;55.36
66479;BME280;53294;47.912;13.526;2022-12-29T01:47:34;96137.22;;;3.49;56.70
66479;BME280;53294;47.912;13.526;2022-12-29T01:52:59;96143.81;;;3.46;57.08
66479;BME280;53294;47.912;13.526;2022-12-29T01:55:29;96133.72;;;3.70;55.97
66479;BME280;53294;47.912;13.526;2022-12-29T01:58:00;96142.56;;;3.04;59.03
66479;BME280;53294;47.912;13.526;2022-12-29T02:00:28;96136.69;;;3.24;58.12
66479;BME280;53294;47.912;13.526;2022-12-29T02:02:55;96142.84;;;2.81;60.22
66479;BME280;53294;47.912;13.526;2022-12-29T02:06:21;96136.28;;;3.33;58.12
66479;BME280;53294;47.912;13.526;2022-12-29T02:08:29;96138.25;;;3.48;57.13
66479;BME280;53294;47.912;13.526;2022-12-29T02:10:56;96127.22;;;3.56;57.07
66479;BME280;53294;47.912;13.526;2022-12-29T02:13:25;96128.25;;;3.55;56.79
66479;BME280;53294;47.912;13.526;2022-12-29T02:21:59;96121.69;;;3.35;58.45
66479;BME280;53294;47.912;13.526;2022-12-29T02:35:47;96099.13;;;3.38;58.26
66479;BME280;53294;47.912;13.526;2022-12-29T02:41:09;96097.34;;;3.44;57.56
66479;BME280;53294;47.912;13.526;2022-12-29T02:46:41;96109.09;;;2.98;60.03
66479;BME280;53294;47.912;13.526;2022-12-29T02:49:15;96099.19;;;3.16;59.04
66479;BME280;53294;47.912;13.526;2022-12-29T02:52:05;96107.66;;;3.13;60.00
66479;BME280;53294;47.912;13.526;2022-12-29T02:54:33;96106.75;;;2.80;60.73
66479;BME280;53294;47.912;13.526;2022-12-29T02:59:41;96104.00;;;3.19;59.36
66479;BME280;53294;47.912;13.526;2022-12-29T03:02:25;96100.94;;;3.32;58.83
66479;BME280;53294;47.912;13.526;2022-12-29T03:07:46;96101.09;;;3.20;59.33
66479;BME280;53294;47.912;13.526;2022-12-29T03:16:26;96092.44;;;3.30;58.75
66479;BME280;53294;47.912;13.526;2022-12-29T03:19:03;96088.31;;;3.45;57.95
66479;BME280;53294;47.912;13.526;2022-12-29T03:21:36;96086.66;;;3.38;57.96
66479;BME280;53294;47.912;13.526;2022-12-29T03:24:26;96084.31;;;3.15;59.14
66479;BME280;53294;47.912;13.526;2022-12-29T03:26:58;96090.28;;;3.27;58.66
66479;BME280;53294;47.912;13.526;2022-12-29T03:29:28;96089.88;;;3.13;59.42
66479;BME280;53294;47.912;13.526;2022-12-29T03:31:57;96095.63;;;3.32;58.31
66479;BME280;53294;47.912;13.526;2022-12-29T03:34:25;96087.72;;;3.37;58.43
66479;BME280;53294;47.912;13.526;2022-12-29T03:37:02;96086.06;;;3.31;58.36
66479;BME280;53294;47.912;13.526;2022-12-29T03:39:31;96087.66;;;3.32;58.14
66479;BME280;53294;47.912;13.526;2022-12-29T03:42:03;96091.94;;;3.33;58.62
66479;BME280;53294;47.912;13.526;2022-12-29T03:44:32;96088.66;;;3.26;58.27
66479;BME280;53294;47.912;13.526;2022-12-29T03:46:59;96083.34;;;3.26;58.75
66479;BME280;53294;47.912;13.526;2022-12-29T03:49:26;96085.50;;;3.02;60.09
66479;BME280;53294;47.912;13.526;2022-12-29T03:51:53;96085.59;;;3.12;59.49
66479;BME280;53294;47.912;13.526;2022-12-29T03:54:20;96082.09;;;3.34;58.29
66479;BME280;53294;47.912;13.526;2022-12-29T03:56:46;96077.16;;;3.42;58.20
66479;BME280;53294;47.912;13.526;2022-12-29T03:59:13;96078.19;;;3.41;58.12
66479;BME280;53294;47.912;13.526;2022-12-29T04:01:40;96075.59;;;3.47;57.72
66479;BME280;53294;47.912;13.526;2022-12-29T04:04:06;96074.25;;;3.44;57.82
66479;BME280;53294;47.912;13.526;2022-12-29T04:06:33;96074.44;;;3.37;58.41
66479;BME280;53294;47.912;13.526;2022-12-29T04:09:00;96082.00;;;3.51;57.69
66479;BME280;53294;47.912;13.526;2022-12-29T04:11:26;96086.38;;;3.35;58.13
66479;BME280;53294;47.912;13.526;2022-12-29T04:13:58;96084.91;;;3.49;57.65
66479;BME280;53294;47.912;13.526;2022-12-29T04:16:25;96082.91;;;3.34;58.30
66479;BME280;53294;47.912;13.526;2022-12-29T04:18:52;96087.91;;;3.31;58.75
66479;BME280;53294;47.912;13.526;2022-12-29T04:21:18;96087.06;;;3.25;59.01
66479;BME280;53294;47.912;13.526;2022-12-29T04:23:45;96083.91;;;3.28;58.42
66479;BME280;53294;47.912;13.526;2022-12-29T04:26:12;96078.72;;;3.11;59.16
66479;BME280;53294;47.912;13.526;2022-12-29T04:28:39;96083.84;;;3.23;58.97
66479;BME280;53294;47.912;13.526;2022-12-29T04:31:06;96089.72;;;3.25;58.78
66479;BME280;53294;47.912;13.526;2022-12-29T04:33:33;96089.28;;;2.84;60.77
66479;BME280;53294;47.912;13.526;2022-12-29T04:36:00;96097.53;;;3.10;59.64
66479;BME280;53294;47.912;13.526;2022-12-29T04:38:27;96097.72;;;3.03;60.06
66479;BME280;53294;47.912;13.526;2022-12-29T04:40:53;96090.53;;;3.26;58.53
66479;BME280;53294;47.912;13.526;2022-12-29T04:43:20;96096.19;;;3.34;58.34
66479;BME280;53294;47.912;13.526;2022-12-29T04:45:48;96094.63;;;3.38;58.34
66479;BME280;53294;47.912;13.526;2022-12-29T04:48:15;96092.72;;;3.34;58.23
66479;BME280;53294;47.912;13.526;2022-12-29T04:50:42;96101.28;;;3.41;58.02
66479;BME280;53294;47.912;13.526;2022-12-29T04:53:09;96096.63;;;3.26;58.87
66479;BME280;53294;47.912;13.526;2022-12-29T04:55:36;96094.38;;;3.13;59.29
66479;BME280;53294;47.912;13.526;2022-12-29T04:58:02;96095.53;;;3.22;58.40
66479;BME280;53294;47.912;13.526;2022-12-29T05:00:30;96098.53;;;3.31;58.31
66479;BME280;53294;47.912;13.526;2022-12-29T05:02:56;96096.78;;;3.14;58.86
66479;BME280;53294;47.912;13.526;2022-12-29T05:05:23;96093.94;;;3.21;58.46
66479;BME280;53294;47.912;13.526;2022-12-29T05:07:50;96089.31;;;3.38;58.22
66479;BME280;53294;47.912;13.526;2022-12-29T05:10:17;96094.72;;;2.94;60.26
66479;BME280;53294;47.912;13.526;2022-12-29T05:12:44;96091.31;;;2.99;60.00
66479;BME280;53294;47.912;13.526;2022-12-29T05:15:11;96082.03;;;3.01;59.62
66479;BME280;53294;47.912;13.526;2022-12-29T05:17:38;96075.16;;;3.00;59.45
66479;BME280;53294;47.912;13.526;2022-12-29T05:20:05;96081.91;;;2.86;59.74
66479;BME280;53294;47.912;13.526;2022-12-29T05:22:33;96087.28;;;2.96;59.58
66479;BME280;53294;47.912;13.526;2022-12-29T05:24:59;96078.50;;;3.18;59.00
66479;BME280;53294;47.912;13.526;2022-12-29T05:27:26;96072.06;;;3.14;59.10
66479;BME280;53294;47.912;13.526;2022-12-29T05:29:53;96083.31;;;2.94;60.26
66479;BME280;53294;47.912;13.526;2022-12-29T05:32:20;96064.97;;;2.92;60.04
66479;BME280;53294;47.912;13.526;2022-12-29T05:34:46;96068.25;;;3.04;59.24
66479;BME280;53294;47.912;13.526;2022-12-29T05:37:13;96069.91;;;2.83;60.37
66479;BME280;53294;47.912;13.526;2022-12-29T05:39:40;96063.31;;;2.86;60.30
66479;BME280;53294;47.912;13.526;2022-12-29T05:42:06;96068.19;;;2.94;59.93
66479;BME280;53294;47.912;13.526;2022-12-29T05:44:33;96069.53;;;2.75;61.06
66479;BME280;53294;47.912;13.526;2022-12-29T05:47:00;96067.81;;;2.63;61.49
66479;BME280;53294;47.912;13.526;2022-12-29T05:49:26;96063.31;;;2.86;60.51
66479;BME280;53294;47.912;13.526;2022-12-29T05:51:53;96072.38;;;2.90;60.04
66479;BME280;53294;47.912;13.526;2022-12-29T05:54:20;96070.59;;;2.74;60.98
66479;BME280;53294;47.912;13.526;2022-12-29T05:56:46;96070.16;;;2.82;60.58
66479;BME280;53294;47.912;13.526;2022-12-29T05:59:13;96067.38;;;2.94;60.38
66479;BME280;53294;47.912;13.526;2022-12-29T06:01:40;96065.03;;;2.97;60.03
66479;BME280;53294;47.912;13.526;2022-12-29T06:04:06;96070.53;;;2.68;61.50
66479;BME280;53294;47.912;13.526;2022-12-29T06:06:33;96071.16;;;2.76;61.08
66479;BME280;53294;47.912;13.526;2022-12-29T06:09:00;96060.81;;;2.52;61.93
66479;BME280;53294;47.912;13.526;2022-12-29T06:11:27;96066.47;;;2.83;60.30
66479;BME280;53294;47.912;13.526;2022-12-29T06:13:54;96073.47;;;2.50;62.21
66479;BME280;53294;47.912;13.526;2022-12-29T06:16:21;96067.56;;;2.65;61.41
66479;BME280;53294;47.912;13.526;2022-12-29T06:18:48;96076.63;;;2.91;60.43
66479;BME280;53294;47.912;13.526;2022-12-29T06:21:14;96073.00;;;2.97;60.53
66479;BME280;53294;47.912;13.526;2022-12-29T06:23:42;96072.00;;;3.03;60.24
66479;BME280;53294;47.912;13.526;2022-12-29T06:26:09;96068.75;;;3.01;60.33
66479;BME280;53294;47.912;13.526;2022-12-29T06:28:35;96065.84;;;3.03;60.83
66479;BME280;53294;47.912;13.526;2022-12-29T06:31:02;96068.75;;;3.01;60.95
66479;BME280;53294;47.912;13.526;2022-12-29T06:33:30;96074.97;;;2.85;62.11
66479;BME280;53294;47.912;13.526;2022-12-29T06:35:56;96069.78;;;2.95;62.30
66479;BME280;53294;47.912;13.526;2022-12-29T06:38:23;96080.81;;;2.87;62.52
66479;BME280;53294;47.912;13.526;2022-12-29T06:40:50;96049.25;;;3.13;61.49
66479;BME280;53294;47.912;13.526;2022-12-29T06:43:16;96054.75;;;3.33;60.84
66479;BME280;53294;47.912;13.526;2022-12-29T06:45:43;96049.69;;;3.32;60.85
66479;BME280;53294;47.912;13.526;2022-12-29T06:48:10;96041.31;;;3.45;60.03
66479;BME280;53294;47.912;13.526;2022-12-29T06:50:36;96039.84;;;3.59;59.70
66479;BME280;53294;47.912;13.526;2022-12-29T06:53:03;96045.19;;;3.65;59.82
66479;BME280;53294;47.912;13.526;2022-12-29T06:55:30;96045.00;;;3.71;59.60
66479;BME280;53294;47.912;13.526;2022-12-29T06:57:58;96047.41;;;3.78;59.37
66479;BME280;53294;47.912;13.526;2022-12-29T07:00:25;96036.44;;;3.69;59.90
66479;BME280;53294;47.912;13.526;2022-12-29T07:02:51;96038.53;;;3.62;60.75
66479;BME280;53294;47.912;13.526;2022-12-29T07:05:18;96043.91;;;3.40;61.54
66479;BME280;53294;47.912;13.526;2022-12-29T07:07:45;96049.53;;;3.44;61.20
66479;BME280;53294;47.912;13.526;2022-12-29T07:10:12;96042.88;;;3.41;61.56
66479;BME280;53294;47.912;13.526;2022-12-29T07:12:38;96037.69;;;3.56;60.75
66479;BME280;53294;47.912;13.526;2022-12-29T07:15:05;96039.25;;;3.52;60.91
66479;BME280;53294;47.912;13.526;2022-12-29T07:17:32;96041.19;;;3.30;61.89
66479;BME280;53294;47.912;13.526;2022-12-29T07:19:59;96044.16;;;3.38;61.14
66479;BME280;53294;47.912;13.526;2022-12-29T07:22:26;96037.03;;;3.39;61.44
66479;BME280;53294;47.912;13.526;2022-12-29T07:24:52;96034.88;;;3.36;61.89
66479;BME280;53294;47.912;13.526;2022-12-29T07:27:19;96033.34;;;3.13;62.51
66479;BME280;53294;47.912;13.526;2022-12-29T07:29:45;96033.34;;;3.13;63.09
66479;BME280;53294;47.912;13.526;2022-12-29T07:32:12;96031.63;;;3.29;61.95
66479;BME280;53294;47.912;13.526;2022-12-29T07:34:39;96048.44;;;3.39;62.11
66479;BME280;53294;47.912;13.526;2022-12-29T07:37:06;96054.78;;;3.71;61.13
66479;BME280;53294;47.912;13.526;2022-12-29T07:39:32;96056.13;;;3.68;61.11
66479;BME280;53294;47.912;13.526;2022-12-29T07:41:59;96056.25;;;3.89;60.75
66479;BME280;53294;47.912;13.526;2022-12-29T07:44:30;96050.94;;;3.89;60.93
66479;BME280;53294;47.912;13.526;2022-12-29T07:46:57;96050.22;;;3.99;61.16
66479;BME280;53294;47.912;13.526;2022-12-29T07:49:24;96035.72;;;4.17;61.21
66479;BME280;53294;47.912;13.526;2022-12-29T07:51:51;96036.78;;;4.21;60.95
66479;BME280;53294;47.912;13.526;2022-12-29T07:54:18;96049.63;;;4.34;60.71
66479;BME280;53294;47.912;13.526;2022-12-29T07:56:45;96054.69;;;4.36;61.35
66479;BME280;53294;47.912;13.526;2022-12-29T07:59:12;96057.16;;;4.47;61.20
66479;BME280;53294;47.912;13.526;2022-12-29T08:01:39;96065.06;;;4.42;61.67
66479;BME280;53294;47.912;13.526;2022-12-29T08:04:06;96065.22;;;4.68;60.66
66479;BME280;53294;47.912;13.526;2022-12-29T08:06:33;96061.47;;;4.64;61.04
66479;BME280;53294;47.912;13.526;2022-12-29T08:09:01;96059.84;;;4.63;61.81
66479;BME280;53294;47.912;13.526;2022-12-29T08:11:40;96058.53;;;4.65;61.00
66479;BME280;53294;47.912;13.526;2022-12-29T08:14:07;96060.44;;;4.75;61.26
66479;BME280;53294;47.912;13.526;2022-12-29T08:16:33;96068.13;;;4.72;61.04
66479;BME280;53294;47.912;13.526;2022-12-29T08:19:00;96065.00;;;4.85;60.62
66479;BME280;53294;47.912;13.526;2022-12-29T08:21:27;96062.63;;;4.89;60.84
66479;BME280;53294;47.912;13.526;2022-12-29T08:23:55;96055.19;;;5.01;60.29
66479;BME280;53294;47.912;13.526;2022-12-29T08:26:21;96058.94;;;5.10;60.51
66479;BME280;53294;47.912;13.526;2022-12-29T08:28:52;96054.16;;;5.07;60.77
66479;BME280;53294;47.912;13.526;2022-12-29T08:31:19;96058.16;;;5.10;61.06
66479;BME280;53294;47.912;13.526;2022-12-29T08:33:46;96050.44;;;5.18;60.76
66479;BME280;53294;47.912;13.526;2022-12-29T08:36:13;96049.38;;;5.25;60.85
66479;BME280;53294;47.912;13.526;2022-12-29T08:38:39;96058.44;;;5.24;60.54
66479;BME280;53294;47.912;13.526;2022-12-29T08:41:06;96061.13;;;5.29;60.78
66479;BME280;53294;47.912;13.526;2022-12-29T08:43:33;96059.00;;;5.41;60.45
66479;BME280;53294;47.912;13.526;2022-12-29T08:46:00;96059.81;;;5.52;60.22
66479;BME280;53294;47.912;13.526;2022-12-29T08:48:27;96066.47;;;5.49;60.46
66479;BME280;53294;47.912;13.526;2022-12-29T08:50:53;96057.94;;;5.57;60.22
66479;BME280;53294;47.912;13.526;2022-12-29T08:53:20;96055.28;;;5.57;60.49
66479;BME280;53294;47.912;13.526;2022-12-29T08:55:54;96060.59;;;5.73;60.23
66479;BME280;53294;47.912;13.526;2022-12-29T08:58:29;96056.34;;;5.87;59.88
66479;BME280;53294;47.912;13.526;2022-12-29T09:00:56;96061.69;;;5.98;59.45
66479;BME280;53294;47.912;13.526;2022-12-29T09:03:24;96055.31;;;5.99;59.38
66479;BME280;53294;47.912;13.526;2022-12-29T09:06:11;96058.72;;;6.20;59.06
66479;BME280;53294;47.912;13.526;2022-12-29T09:08:38;96065.09;;;6.39;58.81
66479;BME280;53294;47.912;13.526;2022-12-29T09:11:10;96062.66;;;6.53;58.17
66479;BME280;53294;47.912;13.526;2022-12-29T09:13:37;96065.50;;;6.72;58.32
66479;BME280;53294;47.912;13.526;2022-12-29T09:16:04;96071.69;;;6.62;58.58
66479;BME280;53294;47.912;13.526;2022-12-29T09:18:31;96064.81;;;6.51;59.05
66479;BME280;53294;47.912;13.526;2022-12-29T09:21:01;96064.19;;;6.75;59.61
66479;BME280;53294;47.912;13.526;2022-12-29T09:23:28;96062.00;;;6.82;59.02
66479;BME280;53294;47.912;13.526;2022-12-29T09:25:55;96065.72;;;6.86;58.53
66479;BME280;53294;47.912;13.526;2022-12-29T09:28:22;96052.63;;;6.95;58.69
66479;BME280;53294;47.912;13.526;2022-12-29T09:30:50;96055.50;;;7.04;58.67
66479;BME280;53294;47.912;13.526;2022-12-29T09:33:17;96064.59;;;6.97;58.36
66479;BME280;53294;47.912;13.526;2022-12-29T09:35:45;96061.03;;;7.17;58.27
66479;BME280;53294;47.912;13.526;2022-12-29T09:38:16;96060.66;;;7.34;57.74
66479;BME280;53294;47.912;13.526;2022-12-29T09:40:46;96060.31;;;7.46;57.92
66479;BME280;53294;47.912;13.526;2022-12-29T09:48:53;96058.97;;;7.49;57.92
66479;BME280;53294;47.912;13.526;2022-12-29T09:51:24;96058.56;;;7.26;58.50
66479;BME280;53294;47.912;13.526;2022-12-29T09:56:52;96055.34;;;7.29;57.35
66479;BME280;53294;47.912;13.526;2022-12-29T09:59:23;96043.50;;;7.41;56.77
66479;BME280;53294;47.912;13.526;2022-12-29T10:01:57;96052.63;;;7.40;57.06
66479;BME280;53294;47.912;13.526;2022-12-29T10:04:27;96056.91;;;7.35;56.68
66479;BME280;53294;47.912;13.526;2022-12-29T10:06:59;96066.72;;;7.45;56.16
66479;BME280;53294;47.912;13.526;2022-12-29T10:09:56;96061.09;;;7.47;55.60
66479;BME280;53294;47.912;13.526;2022-12-29T10:22:24;96045.50;;;7.94;54.59
66479;BME280;53294;47.912;13.526;2022-12-29T10:24:56;96041.75;;;7.95;55.08
66479;BME280;53294;47.912;13.526;2022-12-29T10:27:31;96033.31;;;8.12;54.17
66479;BME280;53294;47.912;13.526;2022-12-29T10:30:00;96026.66;;;8.33;54.45
66479;BME280;53294;47.912;13.526;2022-12-29T10:32:39;96033.75;;;8.48;54.10
66479;BME280;53294;47.912;13.526;2022-12-29T10:35:15;96027.25;;;8.78;53.93
66479;BME280;53294;47.912;13.526;2022-12-29T10:38:11;96031.91;;;8.92;53.81
66479;BME280;53294;47.912;13.526;2022-12-29T10:40:45;96027.50;;;9.20;53.20
66479;BME280;53294;47.912;13.526;2022-12-29T10:43:33;96017.50;;;9.26;52.92
66479;BME280;53294;47.912;13.526;2022-12-29T10:46:04;96017.84;;;9.38;54.08
66479;BME280;53294;47.912;13.526;2022-12-29T10:48:34;96022.34;;;9.62;53.48
66479;BME280;53294;47.912;13.526;2022-12-29T10:51:03;96011.25;;;9.82;53.46
66479;BME280;53294;47.912;13.526;2022-12-29T10:53:58;96013.38;;;9.85;52.75
66479;BME280;53294;47.912;13.526;2022-12-29T10:56:34;95997.16;;;9.91;53.02
66479;BME280;53294;47.912;13.526;2022-12-29T10:59:19;96006.13;;;10.00;52.63
66479;BME280;53294;47.912;13.526;2022-12-29T11:04:56;95991.03;;;10.04;53.10
66479;BME280;53294;47.912;13.526;2022-12-29T11:07:25;95993.19;;;10.35;52.90
66479;BME280;53294;47.912;13.526;2022-12-29T11:09:53;95995.03;;;10.20;52.94
66479;BME280;53294;47.912;13.526;2022-12-29T11:12:30;95977.56;;;10.37;52.16
66479;BME280;53294;47.912;13.526;2022-12-29T11:17:27;95985.47;;;10.98;51.98
66479;BME280;53294;47.912;13.526;2022-12-29T11:19:53;95984.25;;;11.04;52.15
66479;BME280;53294;47.912;13.526;2022-12-29T11:22:23;95973.97;;;11.06;52.79
66479;BME280;53294;47.912;13.526;2022-12-29T11:24:52;95967.09;;;11.13;52.62
66479;BME280;53294;47.912;13.526;2022-12-29T11:27:26;95969.25;;;11.25;52.22
66479;BME280;53294;47.912;13.526;2022-12-29T11:29:54;95956.25;;;11.41;51.80
66479;BME280;53294;47.912;13.526;2022-12-29T11:32:23;95958.19;;;11.49;51.63
66479;BME280;53294;47.912;13.526;2022-12-29T11:34:55;95947.72;;;11.48;51.77
66479;BME280;53294;47.912;13.526;2022-12-29T11:37:31;95945.03;;;11.48;51.15
66479;BME280;53294;47.912;13.526;2022-12-29T11:43:01;95939.94;;;11.38;51.12
66479;BME280;53294;47.912;13.526;2022-12-29T11:45:32;95941.63;;;11.56;51.48
66479;BME280;53294;47.912;13.526;2022-12-29T11:48:08;95936.50;;;11.46;50.29
66479;BME280;53294;47.912;13.526;2022-12-29T11:50:39;95932.44;;;11.57;51.49
66479;BME280;53294;47.912;13.526;2022-12-29T11:55:51;95927.97;;;12.07;50.57
66479;BME280;53294;47.912;13.526;2022-12-29T11:58:18;95931.50;;;12.16;51.15
66479;BME280;53294;47.912;13.526;2022-12-29T12:00:45;95929.13;;;12.14;51.52
66479;BME280;53294;47.912;13.526;2022-12-29T12:03:17;95914.44;;;12.29;52.45
66479;BME280;53294;47.912;13.526;2022-12-29T12:05:56;95910.34;;;12.41;52.57
66479;BME280;53294;47.912;13.526;2022-12-29T12:11:16;95915.94;;;12.53;49.37
66479;BME280;53294;47.912;13.526;2022-12-29T12:14:08;95918.31;;;12.54;49.98
66479;BME280;53294;47.912;13.526;2022-12-29T12:16:46;95907.88;;;12.70;50.01
66479;BME280;53294;47.912;13.526;2022-12-29T12:19:32;95904.72;;;13.03;50.65
66479;BME280;53294;47.912;13.526;2022-12-29T12:22:27;95902.28;;;14.10;49.28
66479;BME280;53294;47.912;13.526;2022-12-29T12:25:02;95900.19;;;14.54;46.74
66479;BME280;53294;47.912;13.526;2022-12-29T12:30:16;95875.38;;;17.66;40.32
66479;BME280;53294;47.912;13.526;2022-12-29T12:33:05;95869.75;;;17.15;42.40
66479;BME280;53294;47.912;13.526;2022-12-29T12:39:22;95852.50;;;18.63;35.65
66479;BME280;53294;47.912;13.526;2022-12-29T12:44:18;95864.22;;;17.39;39.91
66479;BME280;53294;47.912;13.526;2022-12-29T12:46:51;95858.25;;;17.34;40.84
66479;BME280;53294;47.912;13.526;2022-12-29T13:00:27;95863.56;;;19.09;37.12
66479;BME280;53294;47.912;13.526;2022-12-29T13:05:55;95867.94;;;19.53;36.86
66479;BME280;53294;47.912;13.526;2022-12-29T13:11:25;95864.88;;;19.15;34.99
66479;BME280;53294;47.912;13.526;2022-12-29T13:14:20;95860.84;;;19.48;36.04
66479;BME280;53294;47.912;13.526;2022-12-29T13:20:12;95868.06;;;20.03;36.91
66479;BME280;53294;47.912;13.526;2022-12-29T13:33:36;95873.38;;;19.14;38.77
66479;BME280;53294;47.912;13.526;2022-12-29T13:36:37;95874.75;;;19.04;36.94
66479;BME280;53294;47.912;13.526;2022-12-29T13:39:19;95870.25;;;18.76;36.91
66479;BME280;53294;47.912;13.526;2022-12-29T13:41:55;95876.38;;;18.38;39.50
66479;BME280;53294;47.912;13.526;2022-12-29T13:44:43;95871.91;;;18.45;40.87
66479;BME280;53294;47.912;13.526;2022-12-29T13:47:28;95875.34;;;18.26;38.79
66479;BME280;53294;47.912;13.526;2022-12-29T13:49:58;95876.84;;;18.24;38.68
66479;BME280;53294;47.912;13.526;2022-12-29T13:58:27;95887.63;;;18.04;39.12
66479;BME280;53294;47.912;13.526;2022-12-29T14:01:18;95888.41;;;17.89;40.77
66479;BME280;53294;47.912;13.526;2022-12-29T14:03:58;95890.47;;;17.80;41.91
66479;BME280;53294;47.912;13.526;2022-12-29T14:06:28;95901.50;;;17.71;42.13
66479;BME280;53294;47.912;13.526;2022-12-29T14:08:58;95897.34;;;17.45;41.85
66479;BME280;53294;47.912;13.526;2022-12-29T14:11:37;95903.06;;;17.28;42.52
66479;BME280;53294;47.912;13.526;2022-12-29T14:14:16;95900.50;;;17.19;43.35
66479;BME280;53294;47.912;13.526;2022-12-29T14:16:45;95908.66;;;17.07;43.96
66479;BME280;53294;47.912;13.526;2022-12-29T14:19:22;95902.69;;;17.01;43.71
66479;BME280;53294;47.912;13.526;2022-12-29T14:22:02;95907.34;;;16.88;43.10
66479;BME280;53294;47.912;13.526;2022-12-29T14:26:59;95913.13;;;16.62;41.45
66479;BME280;53294;47.912;13.526;2022-12-29T14:31:56;95915.75;;;16.33;41.60
66479;BME280;53294;47.912;13.526;2022-12-29T14:34:26;95921.59;;;16.36;41.79
66479;BME280;53294;47.912;13.526;2022-12-29T14:37:00;95919.81;;;16.27;41.57
66479;BME280;53294;47.912;13.526;2022-12-29T14:39:32;95911.66;;;16.15;42.01
66479;BME280;53294;47.912;13.526;2022-12-29T14:42:04;95915.16;;;16.15;42.12
66479;BME280;53294;47.912;13.526;2022-12-29T14:44:32;95913.69;;;16.18;42.29
66479;BME280;53294;47.912;13.526;2022-12-29T14:47:07;95908.72;;;16.08;43.37
66479;BME280;53294;47.912;13.526;2022-12-29T14:49:42;95913.59;;;16.14;43.06
66479;BME280;53294;47.912;13.526;2022-12-29T14:52:25;95911.31;;;16.04;42.68
66479;BME280;53294;47.912;13.526;2022-12-29T14:57:47;95907.94;;;15.07;43.48
66479;BME280;53294;47.912;13.526;2022-12-29T15:00:29;95906.56;;;14.80;44.54
66479;BME280;53294;47.912;13.526;2022-12-29T15:05:57;95906.66;;;15.25;43.24
66479;BME280;53294;47.912;13.526;2022-12-29T15:08:49;95903.56;;;15.36;43.25
66479;BME280;53294;47.912;13.526;2022-12-29T15:11:23;95910.63;;;15.07;42.92
66479;BME280;53294;47.912;13.526;2022-12-29T15:13:50;95907.09;;;15.15;42.88
66479;BME280;53294;47.912;13.526;2022-12-29T15:16:33;95909.59;;;15.20;43.44
66479;BME280;53294;47.912;13.526;2022-12-29T15:19:02;95911.31;;;15.04;42.47
66479;BME280;53294;47.912;13.526;2022-12-29T15:21:34;95923.34;;;14.64;43.34
66479;BME280;53294;47.912;13.526;2022-12-29T15:24:05;95918.91;;;14.60;43.25
66479;BME280;53294;47.912;13.526;2022-12-29T15:26:49;95919.25;;;14.49;43.89